sensor_id;sensor_type;location;lat;lon;timestamp;P1;durP1;ratioP1;P2;durP2;ratioP2
39018;SDS011;24786;51.984;5.872;2022-12-05T00:03:47;47.60;;;23.05;;
39018;SDS011;24786;51.984;5.872;2022-12-05T00:06:14;48.90;;;24.60;;
39018;SDS011;24786;51.984;5.872;2022-12-05T00:08:40;47.20;;;23.45;;
39018;SDS011;24786;51.984;5.872;2022-12-05T00:11:10;52.15;;;24.08;;
39018;SDS011;24786;51.984;5.872;2022-12-05T00:13:40;62.20;;;29.25;;
39018;SDS011;24786;51.984;5.872;2022-12-05T00:16:10;59.58;;;28.17;;
39018;SDS011;24786;51.984;5.872;2022-12-05T00:18:38;63.63;;;27.25;;
39018;SDS011;24786;51.984;5.872;2022-12-05T00:21:04;51.35;;;24.58;;
39018;SDS011;24786;51.984;5.872;2022-12-05T00:23:30;55.10;;;26.98;;
39018;SDS011;24786;51.984;5.872;2022-12-05T00:25:56;54.70;;;26.15;;
39018;SDS011;24786;51.984;5.872;2022-12-05T00:28:25;53.28;;;25.52;;
39018;SDS011;24786;51.984;5.872;2022-12-05T00:30:50;50.33;;;23.55;;
39018;SDS011;24786;51.984;5.872;2022-12-05T00:33:16;52.15;;;25.23;;
39018;SDS011;24786;51.984;5.872;2022-12-05T00:35:41;48.42;;;23.00;;
39018;SDS011;24786;51.984;5.872;2022-12-05T00:38:07;51.50;;;22.17;;
39018;SDS011;24786;51.984;5.872;2022-12-05T00:40:34;60.92;;;27.20;;
39018;SDS011;24786;51.984;5.872;2022-12-05T00:43:00;61.67;;;28.58;;
39018;SDS011;24786;51.984;5.872;2022-12-05T00:45:26;54.95;;;26.27;;
39018;SDS011;24786;51.984;5.872;2022-12-05T00:47:51;50.20;;;24.42;;
39018;SDS011;24786;51.984;5.872;2022-12-05T00:50:17;51.97;;;24.40;;
39018;SDS011;24786;51.984;5.872;2022-12-05T00:52:42;50.58;;;25.23;;
39018;SDS011;24786;51.984;5.872;2022-12-05T00:55:08;53.13;;;23.27;;
39018;SDS011;24786;51.984;5.872;2022-12-05T00:57:33;57.00;;;25.52;;
39018;SDS011;24786;51.984;5.872;2022-12-05T00:59:59;54.55;;;25.02;;
39018;SDS011;24786;51.984;5.872;2022-12-05T01:02:24;53.08;;;24.95;;
39018;SDS011;24786;51.984;5.872;2022-12-05T01:04:50;58.60;;;26.85;;
39018;SDS011;24786;51.984;5.872;2022-12-05T01:07:16;51.53;;;23.98;;
39018;SDS011;24786;51.984;5.872;2022-12-05T01:09:41;59.42;;;26.15;;
39018;SDS011;24786;51.984;5.872;2022-12-05T01:12:07;51.38;;;23.20;;
39018;SDS011;24786;51.984;5.872;2022-12-05T01:14:32;52.05;;;24.55;;
39018;SDS011;24786;51.984;5.872;2022-12-05T01:16:58;52.45;;;24.98;;
39018;SDS011;24786;51.984;5.872;2022-12-05T01:19:26;51.13;;;24.00;;
39018;SDS011;24786;51.984;5.872;2022-12-05T01:21:53;52.40;;;26.50;;
39018;SDS011;24786;51.984;5.872;2022-12-05T01:24:20;55.53;;;27.15;;
39018;SDS011;24786;51.984;5.872;2022-12-05T01:26:46;45.30;;;23.98;;
39018;SDS011;24786;51.984;5.872;2022-12-05T01:29:13;56.42;;;24.77;;
39018;SDS011;24786;51.984;5.872;2022-12-05T01:31:40;55.67;;;26.48;;
39018;SDS011;24786;51.984;5.872;2022-12-05T01:34:08;50.13;;;22.95;;
39018;SDS011;24786;51.984;5.872;2022-12-05T01:36:37;56.85;;;26.10;;
39018;SDS011;24786;51.984;5.872;2022-12-05T01:39:03;50.65;;;24.35;;
39018;SDS011;24786;51.984;5.872;2022-12-05T01:41:34;56.80;;;25.90;;
39018;SDS011;24786;51.984;5.872;2022-12-05T01:46:51;58.97;;;27.05;;
39018;SDS011;24786;51.984;5.872;2022-12-05T01:49:29;56.25;;;25.73;;
39018;SDS011;24786;51.984;5.872;2022-12-05T01:51:59;51.22;;;25.50;;
39018;SDS011;24786;51.984;5.872;2022-12-05T01:54:30;59.65;;;26.55;;
39018;SDS011;24786;51.984;5.872;2022-12-05T01:57:00;50.65;;;25.15;;
39018;SDS011;24786;51.984;5.872;2022-12-05T01:59:29;52.65;;;24.67;;
39018;SDS011;24786;51.984;5.872;2022-12-05T02:01:58;51.13;;;23.75;;
39018;SDS011;24786;51.984;5.872;2022-12-05T02:04:24;48.38;;;22.17;;
39018;SDS011;24786;51.984;5.872;2022-12-05T02:06:51;51.13;;;23.92;;
39018;SDS011;24786;51.984;5.872;2022-12-05T02:09:17;48.83;;;24.20;;
39018;SDS011;24786;51.984;5.872;2022-12-05T02:11:45;54.92;;;25.45;;
39018;SDS011;24786;51.984;5.872;2022-12-05T02:14:30;56.20;;;25.88;;
39018;SDS011;24786;51.984;5.872;2022-12-05T02:36:39;54.85;;;25.83;;
39018;SDS011;24786;51.984;5.872;2022-12-05T02:39:16;48.45;;;24.45;;
39018;SDS011;24786;51.984;5.872;2022-12-05T02:41:59;49.00;;;23.35;;
39018;SDS011;24786;51.984;5.872;2022-12-05T02:44:32;58.15;;;28.15;;
39018;SDS011;24786;51.984;5.872;2022-12-05T02:47:03;52.60;;;25.38;;
39018;SDS011;24786;51.984;5.872;2022-12-05T02:49:32;55.80;;;26.95;;
39018;SDS011;24786;51.984;5.872;2022-12-05T02:52:01;60.30;;;29.00;;
39018;SDS011;24786;51.984;5.872;2022-12-05T02:54:31;59.15;;;26.35;;
39018;SDS011;24786;51.984;5.872;2022-12-05T02:57:00;53.40;;;25.05;;
39018;SDS011;24786;51.984;5.872;2022-12-05T02:59:27;45.63;;;22.92;;
39018;SDS011;24786;51.984;5.872;2022-12-05T03:01:53;53.00;;;23.13;;
39018;SDS011;24786;51.984;5.872;2022-12-05T03:04:20;48.10;;;22.77;;
39018;SDS011;24786;51.984;5.872;2022-12-05T03:06:49;44.72;;;22.33;;
39018;SDS011;24786;51.984;5.872;2022-12-05T03:09:36;45.17;;;22.67;;
39018;SDS011;24786;51.984;5.872;2022-12-05T03:12:11;52.22;;;23.98;;
39018;SDS011;24786;51.984;5.872;2022-12-05T03:14:41;46.50;;;21.65;;
39018;SDS011;24786;51.984;5.872;2022-12-05T03:17:12;41.67;;;22.05;;
39018;SDS011;24786;51.984;5.872;2022-12-05T03:19:51;43.90;;;20.90;;
39018;SDS011;24786;51.984;5.872;2022-12-05T03:22:34;48.40;;;22.48;;
39018;SDS011;24786;51.984;5.872;2022-12-05T03:25:17;48.75;;;23.85;;
39018;SDS011;24786;51.984;5.872;2022-12-05T03:27:46;50.05;;;23.63;;
39018;SDS011;24786;51.984;5.872;2022-12-05T03:30:23;46.28;;;22.50;;
39018;SDS011;24786;51.984;5.872;2022-12-05T03:35:53;46.72;;;22.63;;
39018;SDS011;24786;51.984;5.872;2022-12-05T03:41:12;47.80;;;22.20;;
39018;SDS011;24786;51.984;5.872;2022-12-05T03:44:03;43.45;;;21.88;;
39018;SDS011;24786;51.984;5.872;2022-12-05T03:49:34;44.72;;;22.52;;
39018;SDS011;24786;51.984;5.872;2022-12-05T03:52:07;49.58;;;24.33;;
39018;SDS011;24786;51.984;5.872;2022-12-05T03:59:38;50.85;;;23.70;;
39018;SDS011;24786;51.984;5.872;2022-12-05T04:02:11;43.58;;;21.67;;
39018;SDS011;24786;51.984;5.872;2022-12-05T04:04:51;42.90;;;21.23;;
39018;SDS011;24786;51.984;5.872;2022-12-05T04:07:20;37.45;;;20.38;;
39018;SDS011;24786;51.984;5.872;2022-12-05T04:09:56;42.17;;;21.15;;
39018;SDS011;24786;51.984;5.872;2022-12-05T04:12:27;41.78;;;20.63;;
39018;SDS011;24786;51.984;5.872;2022-12-05T04:14:59;39.92;;;20.02;;
39018;SDS011;24786;51.984;5.872;2022-12-05T04:20:20;41.03;;;19.80;;
39018;SDS011;24786;51.984;5.872;2022-12-05T04:23:12;33.97;;;18.67;;
39018;SDS011;24786;51.984;5.872;2022-12-05T04:25:41;39.30;;;19.88;;
39018;SDS011;24786;51.984;5.872;2022-12-05T04:28:39;41.10;;;19.65;;
39018;SDS011;24786;51.984;5.872;2022-12-05T04:31:20;42.72;;;19.90;;
39018;SDS011;24786;51.984;5.872;2022-12-05T04:33:54;37.85;;;18.65;;
39018;SDS011;24786;51.984;5.872;2022-12-05T04:36:38;40.75;;;19.67;;
39018;SDS011;24786;51.984;5.872;2022-12-05T04:39:18;43.50;;;20.73;;
39018;SDS011;24786;51.984;5.872;2022-12-05T04:42:03;40.45;;;20.58;;
39018;SDS011;24786;51.984;5.872;2022-12-05T04:44:42;52.72;;;25.40;;
39018;SDS011;24786;51.984;5.872;2022-12-05T04:47:12;41.90;;;19.92;;
39018;SDS011;24786;51.984;5.872;2022-12-05T04:49:41;35.63;;;19.75;;
39018;SDS011;24786;51.984;5.872;2022-12-05T04:52:08;39.38;;;19.45;;
39018;SDS011;24786;51.984;5.872;2022-12-05T04:57:06;25.85;;;14.20;;
39018;SDS011;24786;51.984;5.872;2022-12-05T04:59:45;35.25;;;18.08;;
39018;SDS011;24786;51.984;5.872;2022-12-05T05:02:12;32.38;;;17.10;;
39018;SDS011;24786;51.984;5.872;2022-12-05T05:04:42;34.63;;;18.33;;
39018;SDS011;24786;51.984;5.872;2022-12-05T05:07:11;31.98;;;17.33;;
39018;SDS011;24786;51.984;5.872;2022-12-05T05:09:38;40.00;;;20.77;;
39018;SDS011;24786;51.984;5.872;2022-12-05T05:12:04;32.35;;;17.50;;
39018;SDS011;24786;51.984;5.872;2022-12-05T05:14:31;36.20;;;19.88;;
39018;SDS011;24786;51.984;5.872;2022-12-05T05:16:57;30.85;;;17.23;;
39018;SDS011;24786;51.984;5.872;2022-12-05T05:19:22;32.83;;;17.48;;
39018;SDS011;24786;51.984;5.872;2022-12-05T05:21:49;38.25;;;19.45;;
39018;SDS011;24786;51.984;5.872;2022-12-05T05:24:16;41.28;;;20.10;;
39018;SDS011;24786;51.984;5.872;2022-12-05T05:26:43;33.97;;;17.45;;
39018;SDS011;24786;51.984;5.872;2022-12-05T05:29:10;34.60;;;18.15;;
39018;SDS011;24786;51.984;5.872;2022-12-05T05:31:37;34.15;;;18.15;;
39018;SDS011;24786;51.984;5.872;2022-12-05T05:34:04;35.65;;;18.63;;
39018;SDS011;24786;51.984;5.872;2022-12-05T05:36:30;30.25;;;16.23;;
39018;SDS011;24786;51.984;5.872;2022-12-05T05:38:57;31.55;;;16.40;;
39018;SDS011;24786;51.984;5.872;2022-12-05T05:41:25;29.35;;;15.95;;
39018;SDS011;24786;51.984;5.872;2022-12-05T05:43:51;38.50;;;19.15;;
39018;SDS011;24786;51.984;5.872;2022-12-05T05:46:19;36.60;;;19.33;;
39018;SDS011;24786;51.984;5.872;2022-12-05T05:48:47;32.97;;;17.17;;
39018;SDS011;24786;51.984;5.872;2022-12-05T05:51:13;34.25;;;18.05;;
39018;SDS011;24786;51.984;5.872;2022-12-05T05:53:40;38.10;;;19.80;;
39018;SDS011;24786;51.984;5.872;2022-12-05T05:56:07;39.03;;;19.67;;
39018;SDS011;24786;51.984;5.872;2022-12-05T05:58:35;37.13;;;19.83;;
39018;SDS011;24786;51.984;5.872;2022-12-05T06:01:08;32.92;;;18.05;;
39018;SDS011;24786;51.984;5.872;2022-12-05T06:03:36;38.83;;;18.85;;
39018;SDS011;24786;51.984;5.872;2022-12-05T06:06:03;34.83;;;17.65;;
39018;SDS011;24786;51.984;5.872;2022-12-05T06:08:34;33.92;;;18.02;;
39018;SDS011;24786;51.984;5.872;2022-12-05T06:11:07;36.53;;;17.92;;
39018;SDS011;24786;51.984;5.872;2022-12-05T06:13:34;30.33;;;16.73;;
39018;SDS011;24786;51.984;5.872;2022-12-05T06:16:00;29.02;;;15.77;;
39018;SDS011;24786;51.984;5.872;2022-12-05T06:18:26;34.45;;;16.98;;
39018;SDS011;24786;51.984;5.872;2022-12-05T06:20:52;35.08;;;18.00;;
39018;SDS011;24786;51.984;5.872;2022-12-05T06:23:19;34.30;;;18.70;;
39018;SDS011;24786;51.984;5.872;2022-12-05T06:25:49;33.15;;;18.00;;
39018;SDS011;24786;51.984;5.872;2022-12-05T06:28:16;37.63;;;20.80;;
39018;SDS011;24786;51.984;5.872;2022-12-05T06:30:42;34.22;;;18.73;;
39018;SDS011;24786;51.984;5.872;2022-12-05T06:33:08;38.35;;;20.45;;
39018;SDS011;24786;51.984;5.872;2022-12-05T06:35:33;34.65;;;18.63;;
39018;SDS011;24786;51.984;5.872;2022-12-05T06:37:59;34.50;;;19.23;;
39018;SDS011;24786;51.984;5.872;2022-12-05T06:40:25;34.13;;;19.65;;
39018;SDS011;24786;51.984;5.872;2022-12-05T06:42:50;33.65;;;18.67;;
39018;SDS011;24786;51.984;5.872;2022-12-05T06:45:16;40.92;;;20.73;;
39018;SDS011;24786;51.984;5.872;2022-12-05T06:47:42;36.60;;;19.55;;
39018;SDS011;24786;51.984;5.872;2022-12-05T06:50:07;36.72;;;19.33;;
39018;SDS011;24786;51.984;5.872;2022-12-05T06:52:33;33.85;;;17.52;;
39018;SDS011;24786;51.984;5.872;2022-12-05T06:54:59;35.13;;;19.40;;
39018;SDS011;24786;51.984;5.872;2022-12-05T06:57:26;35.58;;;18.80;;
39018;SDS011;24786;51.984;5.872;2022-12-05T06:59:52;31.90;;;17.80;;
39018;SDS011;24786;51.984;5.872;2022-12-05T07:02:38;32.50;;;18.10;;
39018;SDS011;24786;51.984;5.872;2022-12-05T07:05:05;36.10;;;18.55;;
39018;SDS011;24786;51.984;5.872;2022-12-05T07:07:32;31.05;;;17.55;;
39018;SDS011;24786;51.984;5.872;2022-12-05T07:09:57;32.50;;;18.08;;
39018;SDS011;24786;51.984;5.872;2022-12-05T07:12:23;27.25;;;16.25;;
39018;SDS011;24786;51.984;5.872;2022-12-05T07:14:48;31.10;;;16.92;;
39018;SDS011;24786;51.984;5.872;2022-12-05T07:17:14;29.45;;;15.60;;
39018;SDS011;24786;51.984;5.872;2022-12-05T07:19:41;28.77;;;15.57;;
39018;SDS011;24786;51.984;5.872;2022-12-05T07:22:07;27.10;;;15.05;;
39018;SDS011;24786;51.984;5.872;2022-12-05T07:24:32;25.77;;;15.25;;
39018;SDS011;24786;51.984;5.872;2022-12-05T07:26:58;27.73;;;15.23;;
39018;SDS011;24786;51.984;5.872;2022-12-05T07:29:23;25.67;;;14.85;;
39018;SDS011;24786;51.984;5.872;2022-12-05T07:31:49;26.40;;;14.73;;
39018;SDS011;24786;51.984;5.872;2022-12-05T07:34:15;27.67;;;14.77;;
39018;SDS011;24786;51.984;5.872;2022-12-05T07:36:40;27.67;;;15.52;;
39018;SDS011;24786;51.984;5.872;2022-12-05T07:39:06;23.65;;;14.10;;
39018;SDS011;24786;51.984;5.872;2022-12-05T07:41:31;29.80;;;16.60;;
39018;SDS011;24786;51.984;5.872;2022-12-05T07:43:59;26.75;;;16.02;;
39018;SDS011;24786;51.984;5.872;2022-12-05T07:46:26;28.73;;;15.50;;
39018;SDS011;24786;51.984;5.872;2022-12-05T07:48:52;27.75;;;15.82;;
39018;SDS011;24786;51.984;5.872;2022-12-05T07:51:18;24.08;;;14.93;;
39018;SDS011;24786;51.984;5.872;2022-12-05T07:53:45;25.27;;;13.95;;
39018;SDS011;24786;51.984;5.872;2022-12-05T07:56:12;26.23;;;14.15;;
39018;SDS011;24786;51.984;5.872;2022-12-05T07:58:41;29.52;;;15.52;;
39018;SDS011;24786;51.984;5.872;2022-12-05T08:01:09;23.05;;;14.07;;
39018;SDS011;24786;51.984;5.872;2022-12-05T08:03:36;23.05;;;13.45;;
39018;SDS011;24786;51.984;5.872;2022-12-05T08:06:07;22.95;;;13.43;;
39018;SDS011;24786;51.984;5.872;2022-12-05T08:08:35;23.67;;;13.88;;
39018;SDS011;24786;51.984;5.872;2022-12-05T08:11:04;27.83;;;15.95;;
39018;SDS011;24786;51.984;5.872;2022-12-05T08:13:32;25.45;;;14.52;;
39018;SDS011;24786;51.984;5.872;2022-12-05T08:16:02;23.95;;;14.73;;
39018;SDS011;24786;51.984;5.872;2022-12-05T08:18:28;22.83;;;12.93;;
39018;SDS011;24786;51.984;5.872;2022-12-05T08:20:54;25.73;;;13.80;;
39018;SDS011;24786;51.984;5.872;2022-12-05T08:23:25;22.38;;;13.73;;
39018;SDS011;24786;51.984;5.872;2022-12-05T08:25:52;24.08;;;13.98;;
39018;SDS011;24786;51.984;5.872;2022-12-05T08:28:18;24.58;;;14.45;;
39018;SDS011;24786;51.984;5.872;2022-12-05T08:30:44;20.42;;;12.57;;
39018;SDS011;24786;51.984;5.872;2022-12-05T08:33:09;23.48;;;13.70;;
39018;SDS011;24786;51.984;5.872;2022-12-05T08:35:35;26.27;;;14.07;;
39018;SDS011;24786;51.984;5.872;2022-12-05T08:38:01;22.85;;;13.45;;
39018;SDS011;24786;51.984;5.872;2022-12-05T08:40:28;27.55;;;15.88;;
39018;SDS011;24786;51.984;5.872;2022-12-05T08:42:55;26.08;;;15.60;;
39018;SDS011;24786;51.984;5.872;2022-12-05T08:45:21;25.58;;;14.45;;
39018;SDS011;24786;51.984;5.872;2022-12-05T08:47:47;27.23;;;15.23;;
39018;SDS011;24786;51.984;5.872;2022-12-05T08:50:12;26.02;;;15.45;;
39018;SDS011;24786;51.984;5.872;2022-12-05T08:52:38;29.58;;;16.15;;
39018;SDS011;24786;51.984;5.872;2022-12-05T08:55:04;28.75;;;16.48;;
39018;SDS011;24786;51.984;5.872;2022-12-05T08:57:29;27.17;;;15.68;;
39018;SDS011;24786;51.984;5.872;2022-12-05T08:59:55;29.70;;;16.10;;
39018;SDS011;24786;51.984;5.872;2022-12-05T09:02:21;31.90;;;16.38;;
39018;SDS011;24786;51.984;5.872;2022-12-05T09:04:49;27.27;;;15.40;;
39018;SDS011;24786;51.984;5.872;2022-12-05T09:07:15;33.33;;;17.40;;
39018;SDS011;24786;51.984;5.872;2022-12-05T09:09:41;31.55;;;17.10;;
39018;SDS011;24786;51.984;5.872;2022-12-05T09:12:07;29.48;;;16.25;;
39018;SDS011;24786;51.984;5.872;2022-12-05T09:14:32;33.03;;;17.67;;
39018;SDS011;24786;51.984;5.872;2022-12-05T09:16:58;29.25;;;16.63;;
39018;SDS011;24786;51.984;5.872;2022-12-05T09:19:24;37.35;;;20.13;;
39018;SDS011;24786;51.984;5.872;2022-12-05T09:21:51;38.33;;;19.92;;
39018;SDS011;24786;51.984;5.872;2022-12-05T09:24:17;31.95;;;17.05;;
39018;SDS011;24786;51.984;5.872;2022-12-05T09:26:43;29.40;;;16.48;;
39018;SDS011;24786;51.984;5.872;2022-12-05T09:29:10;38.75;;;19.67;;
39018;SDS011;24786;51.984;5.872;2022-12-05T09:31:37;37.65;;;19.02;;
39018;SDS011;24786;51.984;5.872;2022-12-05T09:34:03;39.70;;;19.48;;
39018;SDS011;24786;51.984;5.872;2022-12-05T09:36:29;43.58;;;21.63;;
39018;SDS011;24786;51.984;5.872;2022-12-05T09:38:58;34.85;;;18.58;;
39018;SDS011;24786;51.984;5.872;2022-12-05T09:52:28;32.70;;;16.63;;
39018;SDS011;24786;51.984;5.872;2022-12-05T09:54:59;29.63;;;16.13;;
39018;SDS011;24786;51.984;5.872;2022-12-05T09:57:34;31.60;;;15.55;;
39018;SDS011;24786;51.984;5.872;2022-12-05T10:00:03;38.00;;;18.23;;
39018;SDS011;24786;51.984;5.872;2022-12-05T10:03:04;30.70;;;15.38;;
39018;SDS011;24786;51.984;5.872;2022-12-05T10:05:46;29.88;;;14.55;;
39018;SDS011;24786;51.984;5.872;2022-12-05T10:17:23;33.28;;;16.88;;
39018;SDS011;24786;51.984;5.872;2022-12-05T10:20:00;28.27;;;15.38;;
39018;SDS011;24786;51.984;5.872;2022-12-05T10:22:37;30.45;;;15.60;;
39018;SDS011;24786;51.984;5.872;2022-12-05T10:25:10;32.83;;;15.88;;
39018;SDS011;24786;51.984;5.872;2022-12-05T10:27:41;29.65;;;15.45;;
39018;SDS011;24786;51.984;5.872;2022-12-05T10:30:16;28.98;;;15.38;;
39018;SDS011;24786;51.984;5.872;2022-12-05T10:32:56;22.98;;;11.18;;
39018;SDS011;24786;51.984;5.872;2022-12-05T10:35:29;31.15;;;16.30;;
39018;SDS011;24786;51.984;5.872;2022-12-05T10:38:18;27.98;;;14.45;;
39018;SDS011;24786;51.984;5.872;2022-12-05T10:40:49;30.60;;;15.18;;
39018;SDS011;24786;51.984;5.872;2022-12-05T10:43:19;29.17;;;14.80;;
39018;SDS011;24786;51.984;5.872;2022-12-05T10:45:52;27.50;;;15.25;;
39018;SDS011;24786;51.984;5.872;2022-12-05T10:48:18;33.88;;;18.70;;
39018;SDS011;24786;51.984;5.872;2022-12-05T10:50:46;34.38;;;18.17;;
39018;SDS011;24786;51.984;5.872;2022-12-05T10:53:20;35.15;;;16.83;;
39018;SDS011;24786;51.984;5.872;2022-12-05T10:58:57;27.52;;;14.63;;
39018;SDS011;24786;51.984;5.872;2022-12-05T11:01:23;28.95;;;15.63;;
39018;SDS011;24786;51.984;5.872;2022-12-05T11:03:55;29.00;;;15.30;;
39018;SDS011;24786;51.984;5.872;2022-12-05T11:06:29;24.58;;;13.75;;
39018;SDS011;24786;51.984;5.872;2022-12-05T11:08:56;27.00;;;14.45;;
39018;SDS011;24786;51.984;5.872;2022-12-05T11:11:27;27.40;;;13.95;;
39018;SDS011;24786;51.984;5.872;2022-12-05T11:14:01;27.00;;;14.43;;
39018;SDS011;24786;51.984;5.872;2022-12-05T11:16:30;24.52;;;13.25;;
39018;SDS011;24786;51.984;5.872;2022-12-05T11:19:17;29.60;;;14.43;;
39018;SDS011;24786;51.984;5.872;2022-12-05T11:21:50;24.20;;;13.70;;
39018;SDS011;24786;51.984;5.872;2022-12-05T11:26:45;26.05;;;14.20;;
39018;SDS011;24786;51.984;5.872;2022-12-05T11:29:27;27.05;;;13.65;;
39018;SDS011;24786;51.984;5.872;2022-12-05T11:32:00;26.27;;;14.30;;
39018;SDS011;24786;51.984;5.872;2022-12-05T11:37:23;24.92;;;13.00;;
39018;SDS011;24786;51.984;5.872;2022-12-05T11:39:53;23.42;;;13.18;;
39018;SDS011;24786;51.984;5.872;2022-12-05T11:42:25;24.70;;;13.55;;
39018;SDS011;24786;51.984;5.872;2022-12-05T11:48:10;22.67;;;12.15;;
39018;SDS011;24786;51.984;5.872;2022-12-05T11:50:40;23.90;;;13.60;;
39018;SDS011;24786;51.984;5.872;2022-12-05T11:58:37;28.60;;;15.00;;
39018;SDS011;24786;51.984;5.872;2022-12-05T12:01:32;24.20;;;13.90;;
39018;SDS011;24786;51.984;5.872;2022-12-05T12:04:17;26.88;;;14.30;;
39018;SDS011;24786;51.984;5.872;2022-12-05T12:07:11;27.90;;;14.10;;
39018;SDS011;24786;51.984;5.872;2022-12-05T12:09:57;27.02;;;14.43;;
39018;SDS011;24786;51.984;5.872;2022-12-05T12:15:58;23.50;;;13.32;;
39018;SDS011;24786;51.984;5.872;2022-12-05T12:21:38;20.77;;;13.13;;
39018;SDS011;24786;51.984;5.872;2022-12-05T12:24:52;21.77;;;13.63;;
39018;SDS011;24786;51.984;5.872;2022-12-05T12:27:04;19.73;;;12.30;;
39018;SDS011;24786;51.984;5.872;2022-12-05T12:35:28;17.13;;;11.15;;
39018;SDS011;24786;51.984;5.872;2022-12-05T12:38:16;17.45;;;10.82;;
39018;SDS011;24786;51.984;5.872;2022-12-05T12:41:07;17.92;;;10.93;;
39018;SDS011;24786;51.984;5.872;2022-12-05T12:51:28;15.30;;;10.00;;
39018;SDS011;24786;51.984;5.872;2022-12-05T12:53:59;14.90;;;9.52;;
39018;SDS011;24786;51.984;5.872;2022-12-05T12:56:39;14.68;;;10.07;;
39018;SDS011;24786;51.984;5.872;2022-12-05T12:59:37;16.00;;;9.85;;
39018;SDS011;24786;51.984;5.872;2022-12-05T13:02:08;16.30;;;10.18;;
39018;SDS011;24786;51.984;5.872;2022-12-05T13:09:55;16.20;;;10.52;;
39018;SDS011;24786;51.984;5.872;2022-12-05T13:12:38;14.52;;;9.95;;
39018;SDS011;24786;51.984;5.872;2022-12-05T13:15:06;13.77;;;9.43;;
39018;SDS011;24786;51.984;5.872;2022-12-05T13:17:40;15.73;;;10.23;;
39018;SDS011;24786;51.984;5.872;2022-12-05T13:20:13;13.63;;;9.55;;
39018;SDS011;24786;51.984;5.872;2022-12-05T13:22:43;15.85;;;9.75;;
39018;SDS011;24786;51.984;5.872;2022-12-05T13:25:14;14.68;;;10.00;;
39018;SDS011;24786;51.984;5.872;2022-12-05T13:27:50;14.60;;;9.35;;
39018;SDS011;24786;51.984;5.872;2022-12-05T13:30:19;12.43;;;8.05;;
39018;SDS011;24786;51.984;5.872;2022-12-05T13:32:45;14.30;;;9.25;;
39018;SDS011;24786;51.984;5.872;2022-12-05T13:35:20;13.38;;;8.95;;
39018;SDS011;24786;51.984;5.872;2022-12-05T13:38:38;13.35;;;8.63;;
39018;SDS011;24786;51.984;5.872;2022-12-05T13:41:36;12.82;;;8.32;;
39018;SDS011;24786;51.984;5.872;2022-12-05T13:44:31;12.93;;;8.40;;
39018;SDS011;24786;51.984;5.872;2022-12-05T13:47:00;11.38;;;7.70;;
39018;SDS011;24786;51.984;5.872;2022-12-05T13:49:30;13.38;;;7.75;;
39018;SDS011;24786;51.984;5.872;2022-12-05T13:52:19;13.48;;;8.82;;
39018;SDS011;24786;51.984;5.872;2022-12-05T13:54:50;12.80;;;7.60;;
39018;SDS011;24786;51.984;5.872;2022-12-05T13:57:48;10.90;;;7.55;;
39018;SDS011;24786;51.984;5.872;2022-12-05T14:15:42;5.00;;;4.05;;
39018;SDS011;24786;51.984;5.872;2022-12-05T14:21:12;4.07;;;2.92;;
39018;SDS011;24786;51.984;5.872;2022-12-05T14:23:57;3.42;;;2.78;;
39018;SDS011;24786;51.984;5.872;2022-12-05T14:34:57;2.80;;;2.13;;
39018;SDS011;24786;51.984;5.872;2022-12-05T14:37:51;2.83;;;2.50;;
39018;SDS011;24786;51.984;5.872;2022-12-05T14:40:30;4.32;;;2.72;;
39018;SDS011;24786;51.984;5.872;2022-12-05T14:42:56;3.58;;;2.55;;
39018;SDS011;24786;51.984;5.872;2022-12-05T14:45:33;2.80;;;2.10;;
39018;SDS011;24786;51.984;5.872;2022-12-05T14:48:03;2.78;;;2.00;;
39018;SDS011;24786;51.984;5.872;2022-12-05T15:04:20;2.72;;;2.33;;
39018;SDS011;24786;51.984;5.872;2022-12-05T15:06:55;3.30;;;2.20;;
39018;SDS011;24786;51.984;5.872;2022-12-05T15:12:14;2.70;;;2.20;;
39018;SDS011;24786;51.984;5.872;2022-12-05T15:14:53;3.45;;;2.50;;
39018;SDS011;24786;51.984;5.872;2022-12-05T15:20:44;3.83;;;2.53;;
39018;SDS011;24786;51.984;5.872;2022-12-05T15:23:40;2.15;;;1.95;;
39018;SDS011;24786;51.984;5.872;2022-12-05T15:26:15;3.60;;;2.53;;
39018;SDS011;24786;51.984;5.872;2022-12-05T15:28:55;6.25;;;2.47;;
39018;SDS011;24786;51.984;5.872;2022-12-05T15:31:28;2.58;;;2.13;;
39018;SDS011;24786;51.984;5.872;2022-12-05T15:33:57;3.17;;;2.40;;
39018;SDS011;24786;51.984;5.872;2022-12-05T15:36:28;3.97;;;2.85;;
39018;SDS011;24786;51.984;5.872;2022-12-05T15:39:13;2.85;;;2.30;;
39018;SDS011;24786;51.984;5.872;2022-12-05T15:41:44;3.92;;;2.55;;
39018;SDS011;24786;51.984;5.872;2022-12-05T15:44:10;3.17;;;2.35;;
39018;SDS011;24786;51.984;5.872;2022-12-05T15:46:36;3.65;;;2.70;;
39018;SDS011;24786;51.984;5.872;2022-12-05T15:49:14;2.88;;;2.13;;
39018;SDS011;24786;51.984;5.872;2022-12-05T15:51:41;2.88;;;2.20;;
39018;SDS011;24786;51.984;5.872;2022-12-05T15:54:10;4.43;;;2.53;;
39018;SDS011;24786;51.984;5.872;2022-12-05T15:56:52;3.78;;;2.80;;
39018;SDS011;24786;51.984;5.872;2022-12-05T15:59:50;4.22;;;2.78;;
39018;SDS011;24786;51.984;5.872;2022-12-05T16:02:42;3.28;;;2.67;;
39018;SDS011;24786;51.984;5.872;2022-12-05T16:05:23;3.40;;;2.90;;
39018;SDS011;24786;51.984;5.872;2022-12-05T16:07:55;3.80;;;3.00;;
39018;SDS011;24786;51.984;5.872;2022-12-05T16:10:21;2.75;;;2.22;;
39018;SDS011;24786;51.984;5.872;2022-12-05T16:12:48;3.92;;;2.97;;
39018;SDS011;24786;51.984;5.872;2022-12-05T16:15:18;4.13;;;3.08;;
39018;SDS011;24786;51.984;5.872;2022-12-05T16:17:51;5.47;;;3.20;;
39018;SDS011;24786;51.984;5.872;2022-12-05T16:22:50;5.20;;;2.97;;
39018;SDS011;24786;51.984;5.872;2022-12-05T16:25:20;3.92;;;2.85;;
39018;SDS011;24786;51.984;5.872;2022-12-05T16:27:59;3.90;;;2.92;;
39018;SDS011;24786;51.984;5.872;2022-12-05T16:30:28;4.30;;;3.00;;
39018;SDS011;24786;51.984;5.872;2022-12-05T16:33:02;3.50;;;2.90;;
39018;SDS011;24786;51.984;5.872;2022-12-05T16:35:46;4.00;;;2.85;;
39018;SDS011;24786;51.984;5.872;2022-12-05T16:45:43;4.78;;;2.83;;
39018;SDS011;24786;51.984;5.872;2022-12-05T16:48:13;4.32;;;2.83;;
39018;SDS011;24786;51.984;5.872;2022-12-05T16:50:42;4.00;;;2.78;;
39018;SDS011;24786;51.984;5.872;2022-12-05T16:55:35;4.43;;;2.90;;
39018;SDS011;24786;51.984;5.872;2022-12-05T16:58:02;4.03;;;3.00;;
39018;SDS011;24786;51.984;5.872;2022-12-05T17:00:28;3.25;;;2.90;;
39018;SDS011;24786;51.984;5.872;2022-12-05T17:02:55;3.22;;;2.80;;
39018;SDS011;24786;51.984;5.872;2022-12-05T17:05:22;3.47;;;2.58;;
39018;SDS011;24786;51.984;5.872;2022-12-05T17:07:48;4.63;;;3.25;;
39018;SDS011;24786;51.984;5.872;2022-12-05T17:10:14;3.72;;;3.00;;
39018;SDS011;24786;51.984;5.872;2022-12-05T17:12:40;4.03;;;3.13;;
39018;SDS011;24786;51.984;5.872;2022-12-05T17:15:16;3.40;;;2.60;;
39018;SDS011;24786;51.984;5.872;2022-12-05T17:17:43;4.03;;;2.95;;
39018;SDS011;24786;51.984;5.872;2022-12-05T17:20:09;5.05;;;3.45;;
39018;SDS011;24786;51.984;5.872;2022-12-05T17:22:36;3.42;;;2.90;;
39018;SDS011;24786;51.984;5.872;2022-12-05T17:25:02;3.50;;;2.72;;
39018;SDS011;24786;51.984;5.872;2022-12-05T17:27:40;3.30;;;2.75;;
39018;SDS011;24786;51.984;5.872;2022-12-05T17:30:07;3.75;;;2.60;;
39018;SDS011;24786;51.984;5.872;2022-12-05T17:32:33;4.43;;;3.13;;
39018;SDS011;24786;51.984;5.872;2022-12-05T17:34:58;6.10;;;2.80;;